Terminal Aerodrome Forecast
Issued by NWS Rapid City, SD

Home | Current Version | Previous Version | Graphics & Text | Print | Product List | Glossary On
Versions: 1 2 3 4 5 6 7 8 9 10 11 12 13 14 15 16
000
FTUS43 KUNR 251200 AAA
TAFRAP
TAF AMD
KRAP 251244Z 2513/2612 35015KT P6SM BKN025
      TEMPO 2514/2516 SCT030
     FM251600 35020G30KT P6SM SCT040
     FM260200 VRB05KT P6SM SCT120
     FM261000 VRB05KT P6SM BKN040=

USA.gov is the U.S. government's official web portal to all federal, state and local government web resources and services.